Elwyn Terrace, Pennsylvania
Current Conditions -  °F | °C
As of 2:53 AM on Saturday 01 Nov 2014 (Local Time) from KLNS Reporting Station
Overcast Overcast  
Wind Chill: 40°   Ceiling: 1900
Heat Index: 46°   Visibility: 10mi
Dew Point: 40°   Wind: 14mph
Humidity: 79%   Direction: 30°NNE
Pressure: 29.81"   Gusts: NA
Location:  40.1777°N, 76.4291°W
Report Text: KLNS 010653Z AUTO 03012KT 10SM BKN019 OVC038 08/04 A2981 RMK AO2 RAB00E12 SLP096 P0000 T00780044
Loading
Personal Weather Stations






























Interactive Weather Map
Tropical Storm Tracking
New forecast layout! Learn more

10-Day Weather Forecast

Advertisements
Track Severe Weather on mobile